METAR Data
IDs: Format: Raw Decoded Include TAF

Data at: 0753 UTC 18 Sep 2021

LFLB 180730Z AUTO 00000KT 9999 FEW076 16/16 Q1015 NOSIG